Time;durP1;ratioP1;P1;durP2;ratioP2;P2;SDS_P1;SDS_P2;PMS_P1;PMS_P2;Temp;Humidity;BMP_temperature;BMP_pressure;BME280_temperature;BME280_humidity;BME280_pressure;Samples;Min_cycle;Max_cycle;Signal;HPM_P1;HPM_P2
2023/09/04 00:02:17;;;;;;;;;8.33;8.33;;;;;;;;4749302;29;45283;-95
2023/09/04 00:04:42;;;;;;;;;13.00;13.00;;;;;;;;4758085;29;45444;-95
2023/09/04 00:07:07;;;;;;;;;11.33;11.33;;;;;;;;4781964;29;45210;-95
2023/09/04 00:09:32;;;;;;;;;10.67;10.67;;;;;;;;4792165;29;9605;-95
2023/09/04 00:12:00;;;;;;;;;14.00;14.00;;;;;;;;4791930;29;8871;-95
2023/09/04 00:14:25;;;;;;;;;13.33;12.67;;;;;;;;4761828;29;8820;-95
2023/09/04 00:16:51;;;;;;;;;14.67;14.67;;;;;;;;4765017;29;45305;-95
2023/09/04 00:19:17;;;;;;;;;13.33;13.33;;;;;;;;4735384;29;46598;-96
2023/09/04 00:21:45;;;;;;;;;12.00;12.00;;;;;;;;4751571;29;45494;-95
2023/09/04 00:24:13;;;;;;;;;16.00;15.33;;;;;;;;4741409;30;45424;-95
2023/09/04 00:26:38;;;;;;;;;16.33;16.33;;;;;;;;4743395;29;45246;-95
2023/09/04 00:29:03;;;;;;;;;12.00;12.00;;;;;;;;4754791;29;45321;-95
2023/09/04 00:31:29;;;;;;;;;12.00;12.00;;;;;;;;4734896;30;45594;-94
2023/09/04 00:33:54;;;;;;;;;16.33;12.67;;;;;;;;4739599;29;45619;-94
2023/09/04 00:36:19;;;;;;;;;18.33;18.33;;;;;;;;4734808;30;45272;-95
2023/09/04 00:38:44;;;;;;;;;11.67;11.67;;;;;;;;4740886;30;45431;-95
2023/09/04 00:41:09;;;;;;;;;17.00;17.00;;;;;;;;4749338;29;45260;-95
2023/09/04 00:43:38;;;;;;;;;14.33;14.33;;;;;;;;4756559;29;45297;-95
2023/09/04 00:46:04;;;;;;;;;12.00;10.67;;;;;;;;4742271;29;45326;-95
2023/09/04 00:48:33;;;;;;;;;12.67;12.33;;;;;;;;4738521;29;46295;-95
2023/09/04 00:50:59;;;;;;;;;14.67;14.67;;;;;;;;4757523;29;45425;-95
2023/09/04 00:53:25;;;;;;;;;15.33;14.00;;;;;;;;4755030;29;45528;-94
2023/09/04 00:55:50;;;;;;;;;15.33;15.33;;;;;;;;4759090;29;45492;-95
2023/09/04 00:58:15;;;;;;;;;14.00;14.00;;;;;;;;4767063;29;45411;-95
2023/09/04 01:00:41;;;;;;;;;13.33;13.33;;;;;;;;4740698;30;45212;-94
2023/09/04 01:03:11;;;;;;;;;17.00;17.00;;;;;;;;4739382;29;45474;-95
2023/09/04 01:05:36;;;;;;;;;18.33;18.33;;;;;;;;4750258;29;45469;-95
2023/09/04 01:08:03;;;;;;;;;14.33;14.33;;;;;;;;4727728;29;48610;-95
2023/09/04 01:10:39;;;;;;;;;17.00;14.67;;;;;;;;4733464;30;45260;-95
2023/09/04 01:13:09;;;;;;;;;15.67;15.67;;;;;;;;4744799;29;45614;-95
2023/09/04 01:15:34;;;;;;;;;18.33;18.33;;;;;;;;4758647;29;45388;-95
2023/09/04 01:18:01;;;;;;;;;15.00;15.00;;;;;;;;4757907;29;45663;-95
2023/09/04 01:20:27;;;;;;;;;17.00;17.00;;;;;;;;4730029;29;45928;-95
2023/09/04 01:22:53;;;;;;;;;17.67;17.67;;;;;;;;4756740;29;45337;-95
2023/09/04 01:25:18;;;;;;;;;16.33;16.33;;;;;;;;4758463;29;45259;-95
2023/09/04 01:28:03;;;;;;;;;16.33;16.33;;;;;;;;4741756;29;46949;-95
2023/09/04 01:30:38;;;;;;;;;18.33;18.33;;;;;;;;4758314;29;45551;-95
2023/09/04 01:33:04;;;;;;;;;21.00;21.00;;;;;;;;4757569;29;45252;-95
2023/09/04 01:35:31;;;;;;;;;15.00;15.00;;;;;;;;4744048;29;45228;-95
2023/09/04 01:37:56;;;;;;;;;17.00;17.00;;;;;;;;4741860;29;45270;-95
2023/09/04 01:40:23;;;;;;;;;19.33;19.33;;;;;;;;4740101;30;45569;-95
2023/09/04 01:42:48;;;;;;;;;16.00;16.00;;;;;;;;4753499;29;45500;-94
2023/09/04 01:45:13;;;;;;;;;14.33;13.67;;;;;;;;4744069;29;45430;-95
2023/09/04 01:47:38;;;;;;;;;16.33;16.33;;;;;;;;4748046;29;45458;-95
2023/09/04 01:50:06;;;;;;;;;15.33;15.33;;;;;;;;4741948;29;45736;-95
2023/09/04 01:52:34;;;;;;;;;11.67;11.67;;;;;;;;4754887;29;45304;-95
2023/09/04 01:54:59;;;;;;;;;14.67;14.67;;;;;;;;4757159;29;45228;-95
2023/09/04 01:57:24;;;;;;;;;19.00;19.00;;;;;;;;4759555;29;45330;-95
2023/09/04 01:59:50;;;;;;;;;15.00;14.00;;;;;;;;4757617;29;45165;-95
2023/09/04 02:02:15;;;;;;;;;18.00;18.00;;;;;;;;4749969;29;45452;-95
2023/09/04 02:04:40;;;;;;;;;21.00;21.00;;;;;;;;4740336;30;45398;-95
2023/09/04 02:07:08;;;;;;;;;17.00;17.00;;;;;;;;4739988;29;46334;-95
2023/09/04 02:09:33;;;;;;;;;15.33;15.33;;;;;;;;4753564;29;45436;-95
2023/09/04 02:11:59;;;;;;;;;22.00;20.33;;;;;;;;4756886;29;45254;-95
2023/09/04 02:14:24;;;;;;;;;14.67;13.67;;;;;;;;4756114;29;45473;-95
2023/09/04 02:16:49;;;;;;;;;11.67;11.67;;;;;;;;4741951;29;45343;-95
2023/09/04 02:19:14;;;;;;;;;11.33;11.33;;;;;;;;4745948;29;45398;-95
2023/09/04 02:21:40;;;;;;;;;14.00;12.33;;;;;;;;4756429;29;45472;-95
2023/09/04 02:24:05;;;;;;;;;9.00;9.00;;;;;;;;4757401;29;45393;-96
2023/09/04 02:26:30;;;;;;;;;14.00;12.33;;;;;;;;4741488;29;48099;-95
2023/09/04 02:28:56;;;;;;;;;10.00;10.00;;;;;;;;4755790;29;45427;-95
2023/09/04 02:31:21;;;;;;;;;7.67;7.67;;;;;;;;4741858;29;45426;-95
2023/09/04 02:33:47;;;;;;;;;8.67;8.67;;;;;;;;4746326;29;45425;-95
2023/09/04 02:36:12;;;;;;;;;10.00;8.33;;;;;;;;4743021;30;46200;-95
2023/09/04 02:38:37;;;;;;;;;9.00;9.00;;;;;;;;4742905;30;45235;-94
2023/09/04 02:41:03;;;;;;;;;8.00;8.00;;;;;;;;4743080;29;45740;-95
2023/09/04 02:43:28;;;;;;;;;9.00;9.00;;;;;;;;4748035;29;45353;-95
2023/09/04 02:45:53;;;;;;;;;12.33;12.33;;;;;;;;4737910;30;46135;-95
2023/09/04 02:48:18;;;;;;;;;13.33;13.33;;;;;;;;4754122;29;45364;-95
2023/09/04 02:50:44;;;;;;;;;9.67;9.67;;;;;;;;4749424;29;45233;-95
2023/09/04 02:53:09;;;;;;;;;10.33;10.33;;;;;;;;4757621;29;45201;-95
2023/09/04 02:55:35;;;;;;;;;8.67;8.67;;;;;;;;4737695;30;47079;-95
2023/09/04 02:58:00;;;;;;;;;9.00;9.00;;;;;;;;4764261;29;45258;-95
2023/09/04 03:00:25;;;;;;;;;14.00;14.00;;;;;;;;4735113;30;45276;-96
2023/09/04 03:02:50;;;;;;;;;17.00;17.00;;;;;;;;4754221;29;45174;-95
2023/09/04 03:05:16;;;;;;;;;15.00;13.67;;;;;;;;4759606;29;46274;-95
2023/09/04 03:07:41;;;;;;;;;18.00;18.00;;;;;;;;4760267;29;45161;-95
2023/09/04 03:10:06;;;;;;;;;14.67;14.67;;;;;;;;4744147;29;45244;-95
2023/09/04 03:12:32;;;;;;;;;18.33;18.33;;;;;;;;4749975;29;45447;-95
2023/09/04 03:14:58;;;;;;;;;17.67;17.67;;;;;;;;4742455;30;45512;-95
2023/09/04 03:17:24;;;;;;;;;14.67;13.67;;;;;;;;4744061;29;45537;-95
2023/09/04 03:19:52;;;;;;;;;14.00;14.00;;;;;;;;4752841;29;45439;-95
2023/09/04 03:22:18;;;;;;;;;19.67;19.67;;;;;;;;4750300;29;45317;-96
2023/09/04 03:24:43;;;;;;;;;14.67;14.67;;;;;;;;4742148;30;45491;-95
2023/09/04 03:27:08;;;;;;;;;16.00;16.00;;;;;;;;4727605;29;45264;-95
2023/09/04 03:29:33;;;;;;;;;18.67;18.67;;;;;;;;4759870;29;45173;-95
2023/09/04 03:31:59;;;;;;;;;16.00;16.00;;;;;;;;4759508;29;45235;-96
2023/09/04 03:34:24;;;;;;;;;15.67;15.67;;;;;;;;4753941;29;46188;-96
2023/09/04 03:36:49;;;;;;;;;14.00;14.00;;;;;;;;4750645;29;45194;-95
2023/09/04 03:39:14;;;;;;;;;17.67;17.67;;;;;;;;4747345;29;45406;-95
2023/09/04 03:41:40;;;;;;;;;15.33;15.33;;;;;;;;4759368;29;45272;-95
2023/09/04 03:44:06;;;;;;;;;14.33;14.33;;;;;;;;4759346;29;46397;-95
2023/09/04 03:46:31;;;;;;;;;11.33;11.33;;;;;;;;4759339;29;45215;-95
2023/09/04 03:48:56;;;;;;;;;18.33;18.33;;;;;;;;4752817;29;45499;-95
2023/09/04 03:51:24;;;;;;;;;11.00;11.00;;;;;;;;4743709;29;45311;-95
2023/09/04 03:53:50;;;;;;;;;9.00;9.00;;;;;;;;4741935;29;45458;-95
2023/09/04 03:56:15;;;;;;;;;14.33;14.33;;;;;;;;4753139;29;45434;-95
2023/09/04 03:58:40;;;;;;;;;15.67;15.67;;;;;;;;4746672;29;45448;-95
2023/09/04 04:01:05;;;;;;;;;15.00;14.00;;;;;;;;4758291;29;47094;-96
2023/09/04 04:03:30;;;;;;;;;14.67;14.67;;;;;;;;4749521;29;45430;-95
2023/09/04 04:05:56;;;;;;;;;13.33;13.33;;;;;;;;4754133;29;45466;-95
2023/09/04 04:08:21;;;;;;;;;12.67;12.67;;;;;;;;4748412;29;45626;-95
2023/09/04 04:10:46;;;;;;;;;7.00;7.00;;;;;;;;4741879;30;45369;-95
2023/09/04 04:13:12;;;;;;;;;13.00;13.00;;;;;;;;4746487;29;47057;-95
2023/09/04 04:15:38;;;;;;;;;14.33;14.33;;;;;;;;4729178;29;45546;-95
2023/09/04 04:18:04;;;;;;;;;17.00;15.33;;;;;;;;4746517;29;45540;-95
2023/09/04 04:20:29;;;;;;;;;15.33;15.33;;;;;;;;4742925;29;45214;-95
2023/09/04 04:22:54;;;;;;;;;22.67;22.67;;;;;;;;4751573;29;45371;-95
2023/09/04 04:25:20;;;;;;;;;17.67;16.33;;;;;;;;4751070;29;45211;-95
2023/09/04 04:27:45;;;;;;;;;16.00;16.00;;;;;;;;4744424;29;45551;-94
2023/09/04 04:30:11;;;;;;;;;23.00;23.00;;;;;;;;4759276;29;45643;-95
2023/09/04 04:32:36;;;;;;;;;22.00;22.00;;;;;;;;4759043;29;45663;-95
2023/09/04 04:35:01;;;;;;;;;21.33;21.33;;;;;;;;4750681;29;45322;-95
2023/09/04 04:37:27;;;;;;;;;22.00;22.00;;;;;;;;4742343;29;47171;-95
2023/09/04 04:39:52;;;;;;;;;21.00;21.00;;;;;;;;4759175;29;45492;-96
2023/09/04 04:42:17;;;;;;;;;18.00;18.00;;;;;;;;4738759;30;47132;-95
2023/09/04 04:44:43;;;;;;;;;19.67;19.67;;;;;;;;4748642;29;45386;-96
2023/09/04 04:47:08;;;;;;;;;21.33;21.33;;;;;;;;4739602;29;45351;-95
2023/09/04 04:49:33;;;;;;;;;18.67;18.67;;;;;;;;4733767;30;45441;-95
2023/09/04 04:51:59;;;;;;;;;25.00;25.00;;;;;;;;4749402;29;45415;-96
2023/09/04 04:54:24;;;;;;;;;24.00;24.00;;;;;;;;4758656;29;45487;-95
2023/09/04 04:56:49;;;;;;;;;20.33;20.33;;;;;;;;4750423;29;45243;-95
2023/09/04 04:59:15;;;;;;;;;23.67;23.67;;;;;;;;4756785;29;45558;-95
2023/09/04 05:01:41;;;;;;;;;22.33;22.33;;;;;;;;4741788;29;45520;-95
2023/09/04 05:04:06;;;;;;;;;19.67;18.67;;;;;;;;4740899;30;45419;-95
2023/09/04 05:06:31;;;;;;;;;22.00;22.00;;;;;;;;4751565;29;45848;-95
2023/09/04 05:08:57;;;;;;;;;28.00;25.33;;;;;;;;4750088;29;45495;-95
2023/09/04 05:11:22;;;;;;;;;20.67;20.67;;;;;;;;4757181;29;45419;-95
2023/09/04 05:13:47;;;;;;;;;23.67;23.67;;;;;;;;4754827;29;45528;-95
2023/09/04 05:16:13;;;;;;;;;22.00;22.00;;;;;;;;4751212;29;45959;-95
2023/09/04 05:18:38;;;;;;;;;23.00;23.00;;;;;;;;4751041;29;45680;-95
2023/09/04 05:21:04;;;;;;;;;18.00;16.33;;;;;;;;4740425;30;46252;-95
2023/09/04 05:23:29;;;;;;;;;16.67;16.67;;;;;;;;4756076;29;45412;-95
2023/09/04 05:25:55;;;;;;;;;22.00;22.00;;;;;;;;4748498;29;45251;-95
2023/09/04 05:28:20;;;;;;;;;17.00;17.00;;;;;;;;4741685;29;45247;-95
2023/09/04 05:30:46;;;;;;;;;16.00;16.00;;;;;;;;4752079;29;45215;-95
2023/09/04 05:33:11;;;;;;;;;14.00;14.00;;;;;;;;4749269;29;45445;-96
2023/09/04 05:35:37;;;;;;;;;13.00;13.00;;;;;;;;4755928;29;46035;-95
2023/09/04 05:38:02;;;;;;;;;12.00;11.33;;;;;;;;4749130;29;45418;-95
2023/09/04 05:40:27;;;;;;;;;15.00;15.00;;;;;;;;4734217;29;47198;-95
2023/09/04 05:42:53;;;;;;;;;14.00;13.67;;;;;;;;4732439;29;45377;-95
2023/09/04 05:45:19;;;;;;;;;17.00;15.67;;;;;;;;4753315;29;45322;-95
2023/09/04 05:47:45;;;;;;;;;24.67;23.67;;;;;;;;4752321;29;45509;-95
2023/09/04 05:50:11;;;;;;;;;14.00;13.00;;;;;;;;4742600;29;46332;-95
2023/09/04 05:52:36;;;;;;;;;17.33;17.33;;;;;;;;4736598;29;45541;-95
2023/09/04 05:55:02;;;;;;;;;12.33;12.33;;;;;;;;4745817;29;45314;-96
2023/09/04 05:57:27;;;;;;;;;17.33;17.33;;;;;;;;4746295;29;45495;-95
2023/09/04 05:59:52;;;;;;;;;12.33;11.33;;;;;;;;4741521;29;45465;-95
2023/09/04 06:02:17;;;;;;;;;14.67;14.67;;;;;;;;4723465;30;45658;-96
2023/09/04 06:04:42;;;;;;;;;15.33;15.33;;;;;;;;4741243;29;45839;-95
2023/09/04 06:07:10;;;;;;;;;15.00;15.00;;;;;;;;4749923;29;45600;-95
2023/09/04 06:09:35;;;;;;;;;13.33;12.67;;;;;;;;4749563;29;45377;-95
2023/09/04 06:12:00;;;;;;;;;16.67;16.67;;;;;;;;4741722;29;46638;-96
2023/09/04 06:14:25;;;;;;;;;14.00;14.00;;;;;;;;4739952;30;45401;-95
2023/09/04 06:16:53;;;;;;;;;17.33;17.33;;;;;;;;4748679;29;45932;-95
2023/09/04 06:19:18;;;;;;;;;14.00;14.00;;;;;;;;4757545;29;45490;-95
2023/09/04 06:21:43;;;;;;;;;15.33;15.33;;;;;;;;4763163;29;45362;-96
2023/09/04 06:24:08;;;;;;;;;16.33;16.33;;;;;;;;4740309;30;45419;-95
2023/09/04 06:26:34;;;;;;;;;15.67;15.67;;;;;;;;4753997;29;45522;-95
2023/09/04 06:28:59;;;;;;;;;15.67;15.67;;;;;;;;4750994;29;45511;-95
2023/09/04 06:31:24;;;;;;;;;14.33;14.00;;;;;;;;4756634;29;45455;-95
2023/09/04 06:33:49;;;;;;;;;10.33;10.33;;;;;;;;4758297;29;45275;-95
2023/09/04 06:36:15;;;;;;;;;13.33;13.33;;;;;;;;4757830;29;45591;-96
2023/09/04 06:38:40;;;;;;;;;12.00;12.00;;;;;;;;4756533;29;45416;-95
2023/09/04 06:41:05;;;;;;;;;12.33;12.33;;;;;;;;4756427;29;46392;-95
2023/09/04 06:43:30;;;;;;;;;9.67;9.67;;;;;;;;4757308;29;45432;-95
2023/09/04 06:45:58;;;;;;;;;13.67;11.33;;;;;;;;4757794;29;45471;-95
2023/09/04 06:48:23;;;;;;;;;22.00;22.00;;;;;;;;4757321;29;45413;-95
2023/09/04 06:50:49;;;;;;;;;14.67;14.67;;;;;;;;4755916;29;45461;-95
2023/09/04 06:53:16;;;;;;;;;16.50;15.50;;;;;;;;4753497;29;45504;-95
2023/09/04 06:55:41;;;;;;;;;13.00;13.00;;;;;;;;4744621;29;45588;-96
2023/09/04 06:58:06;;;;;;;;;9.67;9.67;;;;;;;;4838588;24;47362;-96
2023/09/04 07:00:32;;;;;;;;;9.67;9.67;;;;;;;;4758137;29;45788;-95
2023/09/04 07:02:57;;;;;;;;;9.33;9.33;;;;;;;;4757687;29;45290;-96
2023/09/04 07:05:23;;;;;;;;;10.67;10.67;;;;;;;;4771286;29;45374;-95
2023/09/04 07:07:48;;;;;;;;;6.67;6.67;;;;;;;;4774539;29;45529;-96
2023/09/04 07:10:16;;;;;;;;;11.67;11.67;;;;;;;;4757033;29;45979;-95
2023/09/04 07:12:41;;;;;;;;;7.50;7.50;;;;;;;;4787639;24;44888;-95
2023/09/04 07:15:06;;;;;;;;;14.00;14.00;;;;;;;;4782365;29;45419;-96
2023/09/04 07:17:32;;;;;;;;;14.33;14.33;;;;;;;;4788964;29;47522;-95
2023/09/04 07:19:57;;;;;;;;;17.00;16.00;;;;;;;;4776505;29;45386;-94
2023/09/04 07:22:24;;;;;;;;;15.33;15.33;;;;;;;;4778754;29;45515;-94
2023/09/04 07:24:52;;;;;;;;;13.67;13.67;;;;;;;;4778166;29;45206;-96
2023/09/04 07:27:27;;;;;;;;;;;;;;;;;;;;;
2023/09/04 07:29:53;;;;;;;;;11.33;11.33;;;;;;;;4783579;29;73175;-95
2023/09/04 07:32:18;;;;;;;;;15.67;15.67;;;;;;;;4782800;29;45320;-95
2023/09/04 07:34:43;;;;;;;;;17.00;17.00;;;;;;;;4791478;29;45521;-96
2023/09/04 07:37:08;;;;;;;;;15.00;15.00;;;;;;;;4772758;29;45427;-96
2023/09/04 07:39:36;;;;;;;;;13.00;13.00;;;;;;;;4782181;29;45316;-96
2023/09/04 07:42:01;;;;;;;;;11.00;11.00;;;;;;;;4763990;29;45477;-91
2023/09/04 07:44:31;;;;;;;;;16.67;16.67;;;;;;;;4788236;29;45424;-96
2023/09/04 07:47:51;;;;;;;;;;;;;;;;;;;;;
2023/09/04 07:51:06;;;;;;;;;12.33;12.33;;;;;;;;4694705;30;72742;-96
2023/09/04 07:53:28;;;;;;;;;10.33;10.33;;;;;;;;4697674;30;45485;-96
2023/09/04 07:55:53;;;;;;;;;15.33;15.33;;;;;;;;4688317;30;45333;-96
2023/09/04 07:58:19;;;;;;;;;10.33;10.33;;;;;;;;4722165;29;46194;-96
2023/09/04 08:00:48;;;;;;;;;7.67;7.67;;;;;;;;4771106;29;45805;-96
2023/09/04 08:03:13;;;;;;;;;8.33;8.33;;;;;;;;4778871;29;46957;-96
2023/09/04 08:05:39;;;;;;;;;8.67;8.67;;;;;;;;4769856;29;45730;-95
2023/09/04 08:08:08;;;;;;;;;12.33;12.33;;;;;;;;4752323;29;46445;-96
2023/09/04 08:10:33;;;;;;;;;8.33;8.33;;;;;;;;4771398;29;45527;-96
2023/09/04 08:12:59;;;;;;;;;10.00;10.00;;;;;;;;4787890;29;45510;-96
2023/09/04 08:15:24;;;;;;;;;10.00;10.00;;;;;;;;4778389;29;47208;-95
2023/09/04 08:17:49;;;;;;;;;8.00;8.00;;;;;;;;4790020;29;46458;-96
2023/09/04 08:20:14;;;;;;;;;10.67;10.67;;;;;;;;4781623;29;45388;-96
2023/09/04 08:22:40;;;;;;;;;8.67;8.67;;;;;;;;4789730;29;45523;-96
2023/09/04 08:25:05;;;;;;;;;11.00;11.00;;;;;;;;4765426;29;45497;-96
2023/09/04 08:27:30;;;;;;;;;8.00;8.00;;;;;;;;4781294;29;46344;-96
2023/09/04 08:29:56;;;;;;;;;10.00;10.00;;;;;;;;4790973;29;45464;-96
2023/09/04 08:32:21;;;;;;;;;9.00;9.00;;;;;;;;4802799;29;45402;-95
2023/09/04 08:34:46;;;;;;;;;8.33;8.00;;;;;;;;4795288;29;45402;-96
2023/09/04 08:37:11;;;;;;;;;9.33;8.67;;;;;;;;4792575;29;46335;-96
2023/09/04 08:39:37;;;;;;;;;8.00;7.67;;;;;;;;4777499;29;45547;-96
2023/09/04 08:42:07;;;;;;;;;10.33;10.33;;;;;;;;4795194;29;45473;-96
2023/09/04 08:44:35;;;;;;;;;7.67;7.67;;;;;;;;4779512;29;45509;-96
2023/09/04 08:47:01;;;;;;;;;10.00;10.00;;;;;;;;4760913;29;48125;-96
2023/09/04 08:49:27;;;;;;;;;8.33;8.33;;;;;;;;4791500;29;45886;-96
2023/09/04 08:51:53;;;;;;;;;10.00;10.00;;;;;;;;4781963;29;45500;-96
2023/09/04 08:54:18;;;;;;;;;7.67;7.67;;;;;;;;4781810;29;45546;-96
2023/09/04 08:56:44;;;;;;;;;8.00;8.00;;;;;;;;4783583;29;45415;-96
2023/09/04 08:59:09;;;;;;;;;7.33;7.33;;;;;;;;4783939;29;45470;-96
2023/09/04 09:01:36;;;;;;;;;7.33;7.33;;;;;;;;4776049;29;45246;-96
2023/09/04 09:04:02;;;;;;;;;9.67;8.67;;;;;;;;4772617;29;45541;-96
2023/09/04 09:06:28;;;;;;;;;9.00;9.00;;;;;;;;4786179;29;45410;-96
2023/09/04 09:08:54;;;;;;;;;8.00;8.00;;;;;;;;4768810;29;45976;-96
2023/09/04 09:11:20;;;;;;;;;9.00;9.00;;;;;;;;4791557;29;45458;-96
2023/09/04 09:13:47;;;;;;;;;10.67;10.67;;;;;;;;4783841;29;45477;-96
2023/09/04 09:16:19;;;;;;;;;8.00;7.00;;;;;;;;4771627;29;47435;-96
2023/09/04 09:18:44;;;;;;;;;8.00;8.00;;;;;;;;4785664;29;45345;-96
2023/09/04 09:21:21;;;;;;;;;6.67;6.67;;;;;;;;4775488;29;45486;-96
2023/09/04 09:23:47;;;;;;;;;7.00;7.00;;;;;;;;4794652;29;45456;-96
2023/09/04 09:26:12;;;;;;;;;7.00;7.00;;;;;;;;4780824;29;45482;-96
2023/09/04 09:28:37;;;;;;;;;6.33;6.33;;;;;;;;4759645;29;45901;-96
2023/09/04 09:34:13;;;;;;;;;7.00;7.00;;;;;;;;4862304;24;45330;-96
2023/09/04 09:36:38;;;;;;;;;7.00;7.00;;;;;;;;4772655;29;45526;-96
2023/09/04 09:39:13;;;;;;;;;5.00;5.00;;;;;;;;4755433;29;45448;-94
2023/09/04 09:41:38;;;;;;;;;8.00;8.00;;;;;;;;4756008;29;45491;-95
2023/09/04 09:44:04;;;;;;;;;6.67;6.67;;;;;;;;4728372;29;45672;-95
2023/09/04 09:46:30;;;;;;;;;6.00;6.00;;;;;;;;4740565;30;45323;-95
2023/09/04 09:48:55;;;;;;;;;6.00;6.00;;;;;;;;4740668;29;45278;-96
2023/09/04 09:51:20;;;;;;;;;6.00;6.00;;;;;;;;4740761;29;45452;-96
2023/09/04 09:53:47;;;;;;;;;6.33;6.33;;;;;;;;4754910;29;45193;-96
2023/09/04 09:56:13;;;;;;;;;5.67;5.67;;;;;;;;4735565;29;47240;-96
2023/09/04 09:58:40;;;;;;;;;5.67;5.33;;;;;;;;4749960;29;45492;-96
2023/09/04 10:01:05;;;;;;;;;7.00;7.00;;;;;;;;4723882;30;45525;-96
2023/09/04 10:03:30;;;;;;;;;6.33;6.33;;;;;;;;4746984;29;45544;-93
2023/09/04 10:05:58;;;;;;;;;3.33;3.00;;;;;;;;4745988;29;46210;-93
2023/09/04 10:08:23;;;;;;;;;7.00;7.00;;;;;;;;4724728;29;45626;-94
2023/09/04 10:10:48;;;;;;;;;4.00;4.00;;;;;;;;4733442;29;45374;-94
2023/09/04 10:13:22;;;;;;;;;5.67;5.67;;;;;;;;4729437;29;45560;-93
2023/09/04 10:15:51;;;;;;;;;4.00;4.00;;;;;;;;4745220;29;45436;-93
2023/09/04 10:18:26;;;;;;;;;4.00;4.00;;;;;;;;4741308;29;45401;-94
2023/09/04 10:20:52;;;;;;;;;5.00;5.00;;;;;;;;4726825;30;45445;-95
2023/09/04 10:23:20;;;;;;;;;4.33;4.33;;;;;;;;4743891;29;45613;-94
2023/09/04 10:25:48;;;;;;;;;5.00;5.00;;;;;;;;4741833;29;45554;-94
2023/09/04 10:28:24;;;;;;;;;4.00;4.00;;;;;;;;4731170;29;45581;-95
2023/09/04 10:30:52;;;;;;;;;4.67;4.67;;;;;;;;4748946;29;45309;-93
2023/09/04 10:33:19;;;;;;;;;5.00;5.00;;;;;;;;4738427;29;45172;-94
2023/09/04 10:35:44;;;;;;;;;3.67;3.67;;;;;;;;4743325;29;46347;-94
2023/09/04 10:38:10;;;;;;;;;3.67;3.67;;;;;;;;4744357;29;45252;-94
2023/09/04 10:40:35;;;;;;;;;3.00;3.00;;;;;;;;4754328;29;45301;-96
2023/09/04 10:43:05;;;;;;;;;4.33;4.33;;;;;;;;4725149;29;45493;-95
2023/09/04 10:45:31;;;;;;;;;3.00;3.00;;;;;;;;4746490;29;45503;-95
2023/09/04 10:47:56;;;;;;;;;4.00;4.00;;;;;;;;4733470;29;45489;-96
2023/09/04 10:50:38;;;;;;;;;3.67;3.67;;;;;;;;4755905;29;45531;-96
2023/09/04 10:53:07;;;;;;;;;4.00;4.00;;;;;;;;4724535;29;45458;-94
2023/09/04 10:55:33;;;;;;;;;2.33;2.33;;;;;;;;4741836;30;46037;-96
2023/09/04 10:58:00;;;;;;;;;3.33;3.33;;;;;;;;4744719;29;45484;-94
2023/09/04 11:00:35;;;;;;;;;4.00;4.00;;;;;;;;4755544;29;45514;-94
2023/09/04 11:03:21;;;;;;;;;3.00;3.00;;;;;;;;4742666;29;45544;-94
2023/09/04 11:06:01;;;;;;;;;3.67;3.67;;;;;;;;4726645;30;46559;-94
2023/09/04 11:08:27;;;;;;;;;2.00;2.00;;;;;;;;4744949;29;45235;-94
2023/09/04 11:10:58;;;;;;;;;3.00;3.00;;;;;;;;4752054;29;45519;-93
2023/09/04 11:13:25;;;;;;;;;3.33;3.33;;;;;;;;4725896;30;45399;-93
2023/09/04 11:15:54;;;;;;;;;2.67;2.67;;;;;;;;4726471;30;46978;-94
2023/09/04 11:18:19;;;;;;;;;3.33;3.33;;;;;;;;4756738;29;45228;-93
2023/09/04 11:20:45;;;;;;;;;4.00;4.00;;;;;;;;4759450;29;45447;-94
2023/09/04 11:23:11;;;;;;;;;2.00;2.00;;;;;;;;4755200;29;45489;-95
2023/09/04 11:25:36;;;;;;;;;3.67;3.67;;;;;;;;4760006;29;45517;-94
2023/09/04 11:28:03;;;;;;;;;4.00;4.00;;;;;;;;4743531;29;45510;-93
2023/09/04 11:30:28;;;;;;;;;3.33;3.33;;;;;;;;4760427;29;45433;-93
2023/09/04 11:32:54;;;;;;;;;4.00;4.00;;;;;;;;4757361;29;45348;-94
2023/09/04 11:35:19;;;;;;;;;1.67;1.67;;;;;;;;4748198;29;46129;-94
2023/09/04 11:37:44;;;;;;;;;2.00;2.00;;;;;;;;4742339;30;45256;-94
2023/09/04 11:40:10;;;;;;;;;3.00;3.00;;;;;;;;4742169;30;45289;-94
2023/09/04 11:42:36;;;;;;;;;2.67;2.67;;;;;;;;4729607;30;45422;-94
2023/09/04 11:45:03;;;;;;;;;3.00;3.00;;;;;;;;4741955;30;45578;-94
2023/09/04 11:47:28;;;;;;;;;4.33;2.67;;;;;;;;4726021;30;45278;-95
2023/09/04 11:49:53;;;;;;;;;3.00;3.00;;;;;;;;4742513;29;45320;-94
2023/09/04 11:52:23;;;;;;;;;2.00;2.00;;;;;;;;4737091;29;45459;-94
2023/09/04 11:54:48;;;;;;;;;1.67;1.67;;;;;;;;4742672;29;47627;-94
2023/09/04 11:57:13;;;;;;;;;2.00;2.00;;;;;;;;4765183;29;45386;-94
2023/09/04 11:59:40;;;;;;;;;2.00;2.00;;;;;;;;4743532;29;45466;-94
2023/09/04 12:02:05;;;;;;;;;3.67;3.67;;;;;;;;4742238;30;45392;-94
2023/09/04 12:04:34;;;;;;;;;2.67;2.67;;;;;;;;4740923;29;45439;-94
2023/09/04 12:07:00;;;;;;;;;3.00;3.00;;;;;;;;4739390;29;45363;-94
2023/09/04 12:09:25;;;;;;;;;2.00;2.00;;;;;;;;4759625;29;45391;-95
2023/09/04 12:11:51;;;;;;;;;3.33;3.33;;;;;;;;4759576;29;45418;-94
2023/09/04 12:14:16;;;;;;;;;2.67;2.67;;;;;;;;4759453;29;45330;-95
2023/09/04 12:16:44;;;;;;;;;4.00;4.00;;;;;;;;4753752;29;45437;-95
2023/09/04 12:19:09;;;;;;;;;3.00;3.00;;;;;;;;4750592;29;45490;-95
2023/09/04 12:21:35;;;;;;;;;2.33;2.33;;;;;;;;4741023;29;45292;-95
2023/09/04 12:24:00;;;;;;;;;2.33;2.00;;;;;;;;4741387;30;45458;-94
2023/09/04 12:26:26;;;;;;;;;2.00;2.00;;;;;;;;4740487;29;45457;-94
2023/09/04 12:28:52;;;;;;;;;3.00;3.00;;;;;;;;4746176;29;47075;-94
2023/09/04 12:31:20;;;;;;;;;6.00;4.33;;;;;;;;4739859;29;45619;-95
2023/09/04 12:33:46;;;;;;;;;5.67;5.67;;;;;;;;4742031;29;46062;-96
2023/09/04 12:36:11;;;;;;;;;4.00;4.00;;;;;;;;4740779;29;45471;-93
2023/09/04 12:38:37;;;;;;;;;2.67;2.67;;;;;;;;4739080;29;47318;-94
2023/09/04 12:41:03;;;;;;;;;4.00;4.00;;;;;;;;4740791;29;47227;-95
2023/09/04 12:43:28;;;;;;;;;2.33;2.33;;;;;;;;4738060;29;46304;-95
2023/09/04 12:45:54;;;;;;;;;2.67;2.67;;;;;;;;4739072;29;45515;-95
2023/09/04 12:48:19;;;;;;;;;2.33;2.33;;;;;;;;4733162;29;45553;-95
2023/09/04 12:50:48;;;;;;;;;2.00;2.00;;;;;;;;4749899;29;45416;-95
2023/09/04 12:53:13;;;;;;;;;2.00;2.00;;;;;;;;4750005;29;46117;-96
2023/09/04 12:55:38;;;;;;;;;3.00;3.00;;;;;;;;4740547;29;45342;-95
2023/09/04 12:58:08;;;;;;;;;2.33;2.33;;;;;;;;4764526;29;45230;-94
2023/09/04 13:00:37;;;;;;;;;2.33;2.33;;;;;;;;4751027;29;45563;-95
2023/09/04 13:03:02;;;;;;;;;2.00;2.00;;;;;;;;4741489;29;45510;-95
2023/09/04 13:05:28;;;;;;;;;2.00;2.00;;;;;;;;4752160;29;45169;-95
2023/09/04 13:07:53;;;;;;;;;1.33;1.33;;;;;;;;4741182;29;45283;-95
2023/09/04 13:10:19;;;;;;;;;2.33;2.33;;;;;;;;4725133;29;46418;-96
2023/09/04 13:12:46;;;;;;;;;3.33;3.33;;;;;;;;4742539;29;45467;-96
2023/09/04 13:15:25;;;;;;;;;;;;;;;;;;;;;
2023/09/04 13:17:58;;;;;;;;;2.67;2.67;;;;;;;;4743447;29;65526;-96
2023/09/04 13:20:23;;;;;;;;;1.00;1.00;;;;;;;;4743460;29;45695;-96
2023/09/04 13:22:48;;;;;;;;;2.00;2.00;;;;;;;;4735596;29;46112;-95
2023/09/04 13:25:17;;;;;;;;;3.00;3.00;;;;;;;;4740213;29;45517;-96
2023/09/04 13:27:50;;;;;;;;;3.00;3.00;;;;;;;;4740066;29;45246;-96
2023/09/04 13:30:17;;;;;;;;;3.00;3.00;;;;;;;;4735027;29;45481;-96
2023/09/04 13:32:48;;;;;;;;;2.00;2.00;;;;;;;;4729828;29;47530;-96
2023/09/04 13:35:13;;;;;;;;;3.00;2.00;;;;;;;;4733658;30;45449;-96
2023/09/04 13:37:39;;;;;;;;;3.00;3.00;;;;;;;;4749749;29;45480;-96
2023/09/04 13:40:04;;;;;;;;;3.00;3.00;;;;;;;;4740232;29;45575;-95
2023/09/04 13:42:30;;;;;;;;;3.00;3.00;;;;;;;;4741382;29;45435;-96
2023/09/04 13:44:57;;;;;;;;;0.00;0.00;;;;;;;;4740623;30;45467;-96
2023/09/04 13:47:24;;;;;;;;;2.00;2.00;;;;;;;;4741817;29;45315;-96
2023/09/04 13:49:50;;;;;;;;;3.00;3.00;;;;;;;;4747503;29;45544;-95
2023/09/04 13:52:15;;;;;;;;;2.00;2.00;;;;;;;;4757178;29;45369;-96
2023/09/04 13:54:41;;;;;;;;;3.00;1.67;;;;;;;;4727954;30;45393;-96
2023/09/04 13:57:07;;;;;;;;;2.00;2.00;;;;;;;;4733086;29;45355;-96
2023/09/04 13:59:32;;;;;;;;;3.00;3.00;;;;;;;;4756080;29;45424;-96
2023/09/04 14:01:58;;;;;;;;;2.00;2.00;;;;;;;;4757003;29;45470;-95
2023/09/04 14:04:23;;;;;;;;;2.67;2.67;;;;;;;;4758179;29;45275;-96
2023/09/04 14:06:49;;;;;;;;;2.00;2.00;;;;;;;;4744682;29;45428;-96
2023/09/04 14:09:14;;;;;;;;;2.00;2.00;;;;;;;;4755558;29;45355;-96
2023/09/04 14:11:40;;;;;;;;;2.00;2.00;;;;;;;;4757003;29;46419;-95
2023/09/04 14:14:05;;;;;;;;;2.00;2.00;;;;;;;;4751380;29;45647;-96
2023/09/04 14:16:30;;;;;;;;;2.00;2.00;;;;;;;;4755636;29;45251;-95
2023/09/04 14:18:56;;;;;;;;;2.33;2.33;;;;;;;;4754982;29;45395;-95
2023/09/04 14:21:21;;;;;;;;;1.33;1.33;;;;;;;;4749495;29;45448;-96
2023/09/04 14:23:47;;;;;;;;;2.00;2.00;;;;;;;;4757802;29;45409;-94
2023/09/04 14:26:12;;;;;;;;;2.00;2.00;;;;;;;;4747200;29;45417;-95
2023/09/04 14:28:54;;;;;;;;;2.00;2.00;;;;;;;;4748378;29;45311;-96
2023/09/04 14:31:20;;;;;;;;;2.00;2.00;;;;;;;;4756136;29;45388;-95
2023/09/04 14:33:52;;;;;;;;;1.33;1.33;;;;;;;;4734273;30;45564;-96